createdAt,value
2023-03-01T00:05:19.944Z,1.00
2023-03-01T00:11:18.234Z,1.00
2023-03-01T00:17:11.273Z,1.00
2023-03-01T00:23:05.554Z,1.00
2023-03-01T00:28:59.570Z,1.00
2023-03-01T00:34:57.664Z,1.00
2023-03-01T00:40:52.539Z,1.00
2023-03-01T00:46:45.976Z,1.00
2023-03-01T00:52:39.689Z,1.00
2023-03-01T00:58:35.657Z,1.00
2023-03-01T01:04:28.707Z,1.00
2023-03-01T01:10:22.363Z,1.00
2023-03-01T01:16:17.797Z,1.00
2023-03-01T01:22:11.228Z,1.00
2023-03-01T01:28:05.057Z,1.00
2023-03-01T01:34:00.791Z,1.00
2023-03-01T01:39:54.221Z,1.00
2023-03-01T01:45:47.913Z,1.00
2023-03-01T01:51:46.346Z,1.00
2023-03-01T01:57:42.384Z,1.00
2023-03-01T02:03:40.624Z,1.00
2023-03-01T02:09:36.689Z,1.00
2023-03-01T02:15:35.150Z,1.00
2023-03-01T02:21:38.369Z,1.00
2023-03-01T02:27:39.765Z,1.00
2023-03-01T02:33:37.454Z,1.00
2023-03-01T02:39:36.699Z,1.00
2023-03-01T02:45:30.391Z,1.00
2023-03-01T02:51:48.238Z,1.00
2023-03-01T02:57:44.347Z,1.00
2023-03-01T03:03:37.970Z,1.00
2023-03-01T03:09:33.177Z,1.00
2023-03-01T03:15:28.014Z,1.00
2023-03-01T03:21:21.960Z,2.50
2023-03-01T03:27:16.430Z,5.70
2023-03-01T03:33:13.170Z,8.90
2023-03-01T03:39:07.014Z,4.50
2023-03-01T03:45:01.770Z,7.80
2023-03-01T03:50:56.989Z,13.90
2023-03-01T03:56:50.434Z,11.40
2023-03-01T04:02:45.945Z,14.20
2023-03-01T04:08:39.038Z,15.60
2023-03-01T04:14:32.080Z,21.90
2023-03-01T04:20:29.316Z,12.70
2023-03-01T04:26:22.658Z,13.10
2023-03-01T04:32:18.241Z,23.00
2023-03-01T04:38:13.608Z,19.30
2023-03-01T04:44:07.536Z,16.50
2023-03-01T04:50:00.972Z,21.10
2023-03-01T04:55:56.337Z,25.00
2023-03-01T05:01:49.374Z,25.20
2023-03-01T05:07:42.392Z,17.80
2023-03-01T05:13:36.845Z,23.20
2023-03-01T05:19:30.488Z,41.20
2023-03-01T05:25:23.872Z,29.60
2023-03-01T05:31:18.714Z,41.20
2023-03-01T05:37:11.757Z,48.60
2023-03-01T05:43:06.142Z,44.90
2023-03-01T05:49:00.973Z,54.00
2023-03-01T05:54:54.425Z,56.60
2023-03-01T06:00:49.717Z,54.30
2023-03-01T06:06:44.442Z,52.50
2023-03-01T06:12:39.372Z,56.60
2023-03-01T06:18:33.036Z,66.70
2023-03-01T06:24:29.676Z,64.10
2023-03-01T06:30:24.515Z,64.80
2023-03-01T06:36:19.607Z,61.80
2023-03-01T06:42:13.979Z,57.20
2023-03-01T06:48:08.952Z,56.30
2023-03-01T06:54:02.099Z,47.80
2023-03-01T06:59:56.562Z,50.90
2023-03-01T07:05:52.640Z,66.90
2023-03-01T07:11:45.640Z,57.20
2023-03-01T07:17:39.944Z,64.20
2023-03-01T07:23:32.948Z,58.60
2023-03-01T07:29:25.949Z,66.20
2023-03-01T07:35:20.572Z,61.80
2023-03-01T07:41:14.207Z,58.20
2023-03-01T07:47:07.389Z,62.60
2023-03-01T07:53:01.758Z,71.70
2023-03-01T07:58:55.195Z,68.00
2023-03-01T08:04:48.197Z,77.10
2023-03-01T08:10:42.580Z,80.20
2023-03-01T08:29:54.374Z,61.40
2023-03-01T08:48:31.295Z,61.90
2023-03-01T09:00:51.436Z,69.60
2023-03-01T09:06:46.010Z,71.30
2023-03-01T09:12:39.370Z,70.90
2023-03-01T09:18:32.848Z,68.70
2023-03-01T09:24:28.138Z,77.70
2023-03-01T09:30:22.396Z,81.40
2023-03-01T09:36:18.908Z,74.00
2023-03-01T09:42:17.035Z,79.70
2023-03-01T09:48:17.726Z,84.20
2023-03-01T09:54:12.870Z,91.70
2023-03-01T10:00:29.242Z,85.30
2023-03-01T10:06:34.590Z,90.20
2023-03-01T10:12:35.025Z,84.10
2023-03-01T10:18:33.859Z,75.50
2023-03-01T10:24:27.379Z,65.50
2023-03-01T10:30:25.003Z,54.30
2023-03-01T10:36:19.918Z,48.20
2023-03-01T10:42:26.480Z,41.10
2023-03-01T10:48:24.777Z,38.20
2023-03-01T10:54:21.728Z,33.90
2023-03-01T11:00:23.725Z,23.30
2023-03-01T11:06:24.115Z,24.80
2023-03-01T11:12:19.396Z,32.90
2023-03-01T11:18:34.082Z,32.90
2023-03-01T11:24:43.484Z,13.80
2023-03-01T11:30:43.160Z,18.40
2023-03-01T11:36:41.034Z,14.50
2023-03-01T11:42:57.095Z,5.20
2023-03-01T11:49:02.840Z,1.00
2023-03-01T11:55:09.607Z,1.00
2023-03-01T12:01:18.947Z,1.00
2023-03-01T12:07:23.723Z,1.00
2023-03-01T12:13:47.652Z,1.00
2023-03-01T12:19:58.676Z,1.00
2023-03-01T12:26:00.772Z,1.00
2023-03-01T12:32:09.618Z,1.00
2023-03-01T12:38:15.774Z,1.00
2023-03-01T12:44:31.038Z,1.00
2023-03-01T12:50:27.835Z,1.00
2023-03-01T12:56:24.462Z,1.00
2023-03-01T13:02:25.112Z,1.00
2023-03-01T13:08:25.085Z,1.00
2023-03-01T13:14:45.516Z,1.00
2023-03-01T13:20:50.282Z,1.00
2023-03-01T13:27:18.939Z,1.00
2023-03-01T13:33:46.960Z,1.00
2023-03-01T13:39:43.654Z,1.00
2023-03-01T13:45:41.212Z,1.00
2023-03-01T13:51:35.440Z,1.00
2023-03-01T13:57:36.312Z,1.00
2023-03-01T14:03:31.684Z,1.00
2023-03-01T14:09:29.298Z,1.00
2023-03-01T14:15:29.497Z,1.00
2023-03-01T14:21:24.015Z,1.00
2023-03-01T14:27:17.998Z,1.00
2023-03-01T14:33:24.209Z,1.00
2023-03-01T14:39:22.516Z,1.00
2023-03-01T14:45:16.814Z,1.00
2023-03-01T14:51:14.592Z,1.00
2023-03-01T14:57:07.967Z,1.00
2023-03-01T15:03:05.613Z,1.00
2023-03-01T15:09:00.405Z,1.00
2023-03-01T15:15:03.286Z,1.00
2023-03-01T15:21:07.032Z,1.00
2023-03-01T15:27:07.622Z,1.00
2023-03-01T15:33:22.329Z,1.00
2023-03-01T15:39:38.714Z,1.00
2023-03-01T15:45:35.304Z,1.00
2023-03-01T15:51:35.093Z,1.00
2023-03-01T15:57:28.140Z,1.00
2023-03-01T16:03:23.298Z,1.00
2023-03-01T16:09:16.366Z,1.00
2023-03-01T16:15:18.378Z,1.00
2023-03-01T16:21:17.613Z,1.00
2023-03-01T16:27:11.598Z,1.00
2023-03-01T16:33:19.124Z,1.00
2023-03-01T16:39:19.870Z,1.00
2023-03-01T16:45:23.855Z,1.00
2023-03-01T16:51:18.667Z,1.00
2023-03-01T16:57:13.439Z,1.00
2023-03-01T17:03:06.941Z,1.00
2023-03-01T17:09:00.136Z,1.00
2023-03-01T17:14:54.468Z,1.00
2023-03-01T17:20:47.928Z,1.00
2023-03-01T17:26:41.631Z,1.00
2023-03-01T17:32:36.678Z,1.00
2023-03-01T17:38:30.258Z,1.00
2023-03-01T17:44:23.784Z,1.00
2023-03-01T17:50:18.572Z,1.00
2023-03-01T17:56:12.656Z,1.00
2023-03-01T18:02:05.697Z,1.00
2023-03-01T18:08:00.070Z,1.00
2023-03-01T18:13:55.056Z,1.00
2023-03-01T18:19:48.712Z,1.00
2023-03-01T18:25:43.028Z,1.00
2023-03-01T18:31:36.488Z,6.00
2023-03-01T18:37:29.912Z,6.10
2023-03-01T18:43:24.594Z,6.00
2023-03-01T18:49:18.118Z,5.70
2023-03-01T18:55:12.472Z,14.00
2023-03-01T19:01:08.576Z,25.00
2023-03-01T19:07:02.672Z,23.70
2023-03-01T19:12:56.069Z,52.00
2023-03-01T19:18:51.958Z,56.60
2023-03-01T19:24:45.832Z,88.60
2023-03-01T19:30:39.841Z,95.80
2023-03-01T19:36:35.376Z,99.90
2023-03-01T19:42:28.579Z,99.90
2023-03-01T19:48:22.107Z,99.90
2023-03-01T19:54:20.380Z,99.90
2023-03-01T20:00:15.816Z,99.90
2023-03-01T20:06:12.515Z,99.90
2023-03-01T20:12:07.329Z,99.90
2023-03-01T20:18:00.738Z,99.90
2023-03-01T20:23:54.239Z,99.90
2023-03-01T20:29:48.949Z,99.90
2023-03-01T20:35:45.557Z,99.90
2023-03-01T20:41:38.660Z,99.90
2023-03-01T20:47:33.496Z,99.90
2023-03-01T20:53:26.979Z,99.90
2023-03-01T20:59:20.456Z,99.90
2023-03-01T21:05:14.772Z,99.90
2023-03-01T21:11:08.357Z,99.90
2023-03-01T21:17:01.338Z,99.90
2023-03-01T21:22:56.051Z,99.90
2023-03-01T21:28:53.272Z,99.90
